Time,TemperatureF,DewpointF,PressureIn,WindDirection,WindDirectionDegrees,WindSpeedMPH,WindSpeedGustMPH,Humidity,HourlyPrecipIn,Conditions,Clouds,dailyrainin,SoftwareType,DateUTC
2013-08-03 00:00:00,66.8,60.1,29.90,ENE,76,0.0,0.0,79,0.00,,,0.00,Wunderground v.1.15,2013-08-03 05:00:00,
2013-08-03 00:10:00,66.8,60.4,29.90,ENE,76,0.0,0.0,80,0.00,,,0.00,Wunderground v.1.15,2013-08-03 05:10:00,
2013-08-03 00:20:00,66.6,60.2,29.90,ENE,76,0.0,0.0,80,0.00,,,0.00,Wunderground v.1.15,2013-08-03 05:20:00,
2013-08-03 00:30:00,66.4,60.4,29.91,ENE,76,0.0,0.0,81,0.00,,,0.00,Wunderground v.1.15,2013-08-03 05:30:00,
2013-08-03 00:40:00,66.3,60.3,29.91,ENE,76,0.0,0.0,81,0.00,,,0.00,Wunderground v.1.15,2013-08-03 05:40:00,
2013-08-03 00:50:00,66.1,60.4,29.92,ENE,76,0.0,0.0,82,0.00,,,0.00,Wunderground v.1.15,2013-08-03 05:50:00,
2013-08-03 01:00:00,66.0,60.3,29.93,ENE,76,0.0,0.0,82,0.00,,,0.00,Wunderground v.1.15,2013-08-03 06:00:00,
2013-08-03 01:10:00,65.8,60.2,29.93,ENE,76,0.0,0.0,82,0.00,,,0.00,Wunderground v.1.15,2013-08-03 06:10:00,
2013-08-03 01:20:00,65.8,60.5,29.93,ENE,76,0.0,0.0,83,0.00,,,0.00,Wunderground v.1.15,2013-08-03 06:20:00,
2013-08-03 01:30:00,65.6,60.3,29.94,ENE,76,0.0,0.0,83,0.00,,,0.00,Wunderground v.1.15,2013-08-03 06:30:00,
2013-08-03 01:40:00,65.6,60.3,29.94,ENE,76,0.0,0.0,83,0.00,,,0.00,Wunderground v.1.15,2013-08-03 06:40:00,
2013-08-03 01:50:00,65.6,60.3,29.93,ENE,76,0.0,0.0,83,0.00,,,0.00,Wunderground v.1.15,2013-08-03 06:50:00,
2013-08-03 02:00:00,65.6,60.3,29.94,ENE,76,0.0,0.0,83,0.00,,,0.00,Wunderground v.1.15,2013-08-03 07:00:00,
2013-08-03 02:10:00,65.6,60.3,29.94,ENE,76,0.0,0.0,83,0.00,,,0.00,Wunderground v.1.15,2013-08-03 07:10:00,
2013-08-03 02:20:00,65.8,60.5,29.93,ENE,76,0.0,0.0,83,0.00,,,0.00,Wunderground v.1.15,2013-08-03 07:20:00,
2013-08-03 02:30:00,65.8,60.2,29.92,ENE,76,0.0,0.0,82,0.00,,,0.00,Wunderground v.1.15,2013-08-03 07:30:00,
2013-08-03 02:40:00,65.8,60.2,29.92,ENE,76,0.0,0.0,82,0.00,,,0.00,Wunderground v.1.15,2013-08-03 07:40:00,
2013-08-03 02:50:00,65.8,60.2,29.92,ENE,76,0.0,0.0,82,0.00,,,0.00,Wunderground v.1.15,2013-08-03 07:50:00,
2013-08-03 03:00:00,65.8,60.2,29.93,ENE,76,0.0,0.0,82,0.00,,,0.00,Wunderground v.1.15,2013-08-03 08:00:00,
2013-08-03 03:10:00,65.8,60.2,29.93,ENE,76,0.0,0.0,82,0.00,,,0.00,Wunderground v.1.15,2013-08-03 08:10:00,
2013-08-03 03:20:00,65.6,60.0,29.92,ENE,76,0.0,0.0,82,0.00,,,0.00,Wunderground v.1.15,2013-08-03 08:20:00,
2013-08-03 03:30:00,65.6,60.0,29.92,ENE,76,0.0,0.0,82,0.00,,,0.00,Wunderground v.1.15,2013-08-03 08:30:00,
2013-08-03 03:40:00,65.5,59.9,29.92,ENE,76,0.0,0.0,82,0.00,,,0.00,Wunderground v.1.15,2013-08-03 08:40:00,
2013-08-03 03:50:00,65.5,59.9,29.92,ENE,76,0.0,0.0,82,0.00,,,0.00,Wunderground v.1.15,2013-08-03 08:50:00,
2013-08-03 04:00:00,65.3,60.0,29.92,ENE,76,0.0,0.0,83,0.00,,,0.00,Wunderground v.1.15,2013-08-03 09:00:00,
2013-08-03 04:10:00,65.2,59.9,29.92,ENE,76,0.0,0.0,83,0.00,,,0.00,Wunderground v.1.15,2013-08-03 09:10:00,
2013-08-03 04:20:00,65.0,59.7,29.92,ENE,76,0.0,0.0,83,0.00,,,0.00,Wunderground v.1.15,2013-08-03 09:20:00,
2013-08-03 04:30:00,64.8,59.5,29.92,ENE,76,0.0,0.0,83,0.00,,,0.00,Wunderground v.1.15,2013-08-03 09:30:00,
2013-08-03 04:40:00,64.8,59.5,29.92,ENE,76,0.0,0.0,83,0.00,,,0.00,Wunderground v.1.15,2013-08-03 09:40:00,
2013-08-03 04:50:00,64.7,59.8,29.93,ENE,76,0.0,0.0,84,0.00,,,0.00,Wunderground v.1.15,2013-08-03 09:50:00,
2013-08-03 05:00:00,64.5,59.6,29.93,ENE,76,0.0,0.0,84,0.00,,,0.00,Wunderground v.1.15,2013-08-03 10:00:00,
2013-08-03 05:10:00,64.3,59.4,29.93,ENE,76,0.0,0.0,84,0.00,,,0.00,Wunderground v.1.15,2013-08-03 10:10:00,
2013-08-03 05:20:00,64.0,59.1,29.94,ENE,76,0.0,0.0,84,0.00,,,0.00,Wunderground v.1.15,2013-08-03 10:20:00,
2013-08-03 05:30:00,63.9,59.0,29.94,ENE,73,0.0,0.0,84,0.00,,,0.00,Wunderground v.1.15,2013-08-03 10:30:00,
2013-08-03 05:40:00,63.7,58.8,29.94,ENE,73,0.0,0.0,84,0.00,,,0.00,Wunderground v.1.15,2013-08-03 10:40:00,
2013-08-03 05:50:00,63.5,58.6,29.94,ENE,73,0.0,0.0,84,0.00,,,0.00,Wunderground v.1.15,2013-08-03 10:50:00,
2013-08-03 06:00:00,63.4,58.5,29.94,ENE,73,0.0,0.0,84,0.00,,,0.00,Wunderground v.1.15,2013-08-03 11:00:00,
2013-08-03 06:10:00,63.2,58.3,29.94,ENE,73,0.0,0.0,84,0.00,,,0.00,Wunderground v.1.15,2013-08-03 11:10:00,
2013-08-03 06:20:00,63.1,58.2,29.94,ENE,73,0.0,0.0,84,0.00,,,0.00,Wunderground v.1.15,2013-08-03 11:20:00,
2013-08-03 06:30:00,62.9,58.0,29.95,ENE,73,0.0,0.0,84,0.00,,,0.00,Wunderground v.1.15,2013-08-03 11:30:00,
2013-08-03 06:40:00,62.7,58.1,29.95,ENE,73,0.0,0.0,85,0.00,,,0.00,Wunderground v.1.15,2013-08-03 11:40:00,
2013-08-03 06:50:00,62.6,58.0,29.95,ENE,73,0.0,0.0,85,0.00,,,0.00,Wunderground v.1.15,2013-08-03 11:50:00,
2013-08-03 07:00:00,62.4,57.8,29.96,ENE,73,0.0,0.0,85,0.00,,,0.00,Wunderground v.1.15,2013-08-03 12:00:00,
2013-08-03 07:10:00,62.4,57.8,29.96,ENE,73,0.0,0.0,85,0.00,,,0.00,Wunderground v.1.15,2013-08-03 12:10:00,
2013-08-03 07:20:00,62.4,57.8,29.97,SE,127,0.0,0.0,85,0.00,,,0.00,Wunderground v.1.15,2013-08-03 12:20:00,
2013-08-03 07:30:00,62.6,58.0,29.97,SE,127,0.0,0.0,85,0.00,,,0.00,Wunderground v.1.15,2013-08-03 12:30:00,
2013-08-03 07:40:00,63.1,58.2,29.97,SE,127,0.0,0.0,84,0.00,,,0.00,Wunderground v.1.15,2013-08-03 12:40:00,
2013-08-03 07:50:00,63.4,58.5,29.98,SE,127,0.0,0.0,84,0.00,,,0.00,Wunderground v.1.15,2013-08-03 12:50:00,
2013-08-03 08:00:00,63.5,58.2,29.99,SE,127,0.0,0.0,83,0.00,,,0.00,Wunderground v.1.15,2013-08-03 13:00:00,
2013-08-03 08:10:00,63.9,58.3,29.99,SE,127,0.0,0.0,82,0.00,,,0.00,Wunderground v.1.15,2013-08-03 13:10:00,
2013-08-03 08:20:00,64.2,58.2,30.00,SE,127,0.0,0.0,81,0.00,,,0.00,Wunderground v.1.15,2013-08-03 13:20:00,
2013-08-03 08:30:00,65.8,57.7,30.00,SE,126,0.0,0.0,75,0.00,,,0.00,Wunderground v.1.15,2013-08-03 13:30:00,
2013-08-03 08:40:00,67.1,57.0,30.00,SE,126,0.0,0.0,70,0.00,,,0.00,Wunderground v.1.15,2013-08-03 13:40:00,
2013-08-03 08:50:00,68.1,56.7,30.00,SE,126,0.0,0.0,67,0.00,,,0.00,Wunderground v.1.15,2013-08-03 13:50:00,
2013-08-03 09:00:00,68.8,57.4,30.01,SE,126,0.0,0.0,67,0.00,,,0.00,Wunderground v.1.15,2013-08-03 14:00:00,
2013-08-03 09:10:00,69.4,57.1,30.01,East,101,0.0,0.0,65,0.00,,,0.00,Wunderground v.1.15,2013-08-03 14:10:00,
2013-08-03 09:20:00,69.8,57.1,30.01,ESE,102,0.0,0.0,64,0.00,,,0.00,Wunderground v.1.15,2013-08-03 14:20:00,
2013-08-03 09:30:00,70.4,56.8,30.02,ESE,102,0.0,0.0,62,0.00,,,0.00,Wunderground v.1.15,2013-08-03 14:30:00,
2013-08-03 09:40:00,71.5,56.9,30.02,ESE,102,0.0,0.0,60,0.00,,,0.00,Wunderground v.1.15,2013-08-03 14:40:00,
2013-08-03 09:50:00,71.6,56.5,30.01,East,99,0.0,0.0,59,0.00,,,0.00,Wunderground v.1.15,2013-08-03 14:50:00,
2013-08-03 10:00:00,72.7,56.6,30.02,East,95,0.0,0.0,57,0.00,,,0.00,Wunderground v.1.15,2013-08-03 15:00:00,
2013-08-03 10:09:00,72.8,55.2,30.02,East,95,0.0,0.0,54,0.00,,,0.00,Wunderground v.1.15,2013-08-03 15:09:00,
2013-08-03 10:20:00,73.3,56.2,30.02,East,96,0.0,0.0,55,0.00,,,0.00,Wunderground v.1.15,2013-08-03 15:20:00,
2013-08-03 10:30:00,73.7,56.0,30.03,East,96,0.0,0.0,54,0.00,,,0.00,Wunderground v.1.15,2013-08-03 15:30:00,
2013-08-03 10:40:00,74.0,55.8,30.03,ESE,103,0.0,0.0,53,0.00,,,0.00,Wunderground v.1.15,2013-08-03 15:40:00,
2013-08-03 10:50:00,74.2,54.9,30.03,East,94,0.0,0.0,51,0.00,,,0.00,Wunderground v.1.15,2013-08-03 15:50:00,
2013-08-03 11:00:00,74.9,56.1,30.03,East,101,0.0,0.0,52,0.00,,,0.00,Wunderground v.1.15,2013-08-03 16:00:00,
2013-08-03 11:10:00,75.4,55.5,30.03,East,101,0.0,0.0,50,0.00,,,0.00,Wunderground v.1.15,2013-08-03 16:10:00,
2013-08-03 11:20:00,74.9,54.4,30.03,ESE,104,0.0,0.0,49,0.00,,,0.00,Wunderground v.1.15,2013-08-03 16:20:00,
2013-08-03 11:30:00,75.3,57.0,30.03,East,101,0.0,0.0,53,0.00,,,0.00,Wunderground v.1.15,2013-08-03 16:30:00,
2013-08-03 11:40:00,75.8,56.4,30.03,East,98,0.0,0.0,51,0.00,,,0.00,Wunderground v.1.15,2013-08-03 16:40:00,
2013-08-03 11:50:00,75.3,54.8,30.03,East,98,0.0,0.0,49,0.00,,,0.00,Wunderground v.1.15,2013-08-03 16:50:00,
2013-08-03 12:00:00,75.3,55.4,30.03,East,98,0.0,0.0,50,0.00,,,0.00,Wunderground v.1.15,2013-08-03 17:00:00,
2013-08-03 12:10:00,75.4,56.0,30.03,WNW,301,0.0,0.0,51,0.00,,,0.00,Wunderground v.1.15,2013-08-03 17:10:00,
2013-08-03 12:20:00,76.3,56.3,30.04,WNW,301,0.0,0.0,50,0.00,,,0.00,Wunderground v.1.15,2013-08-03 17:20:00,
2013-08-03 12:30:00,76.1,55.0,30.03,WNW,301,0.0,0.0,48,0.00,,,0.00,Wunderground v.1.15,2013-08-03 17:30:00,
2013-08-03 12:40:00,76.1,56.7,30.03,WNW,294,0.0,0.0,51,0.00,,,0.00,Wunderground v.1.15,2013-08-03 17:40:00,
2013-08-03 12:50:00,76.0,54.9,30.04,WNW,300,0.0,0.0,48,0.00,,,0.00,Wunderground v.1.15,2013-08-03 17:50:00,
2013-08-03 13:00:00,75.8,56.4,30.04,NW,312,0.0,0.0,51,0.00,,,0.00,Wunderground v.1.15,2013-08-03 18:00:00,
2013-08-03 13:09:00,76.5,57.6,30.04,NW,312,0.0,0.0,52,0.00,,,0.00,Wunderground v.1.15,2013-08-03 18:09:00,
2013-08-03 13:20:00,76.0,56.6,30.03,NW,311,0.0,0.0,51,0.00,,,0.00,Wunderground v.1.15,2013-08-03 18:20:00,
2013-08-03 13:30:00,76.5,55.3,30.03,NW,312,0.0,0.0,48,0.00,,,0.00,Wunderground v.1.15,2013-08-03 18:30:00,
2013-08-03 13:40:00,77.4,56.7,30.03,WNW,298,0.0,0.0,49,0.00,,,0.00,Wunderground v.1.15,2013-08-03 18:40:00,
2013-08-03 13:50:00,78.1,55.6,30.03,WNW,298,0.0,0.0,46,0.00,,,0.00,Wunderground v.1.15,2013-08-03 18:50:00,
2013-08-03 14:00:00,78.3,54.0,30.03,NW,309,0.0,0.0,43,0.00,,,0.00,Wunderground v.1.15,2013-08-03 19:00:00,
2013-08-03 14:10:00,77.7,54.7,30.03,NW,307,0.0,0.0,45,0.00,,,0.00,Wunderground v.1.15,2013-08-03 19:10:00,
2013-08-03 14:20:00,78.5,54.8,30.03,NW,307,0.0,0.0,44,0.00,,,0.00,Wunderground v.1.15,2013-08-03 19:20:00,
2013-08-03 14:30:00,78.6,54.2,30.04,NW,305,0.0,0.0,43,0.00,,,0.00,Wunderground v.1.15,2013-08-03 19:30:00,
2013-08-03 14:40:00,78.8,53.1,30.04,NW,305,0.0,0.0,41,0.00,,,0.00,Wunderground v.1.15,2013-08-03 19:40:00,
2013-08-03 14:50:00,79.0,52.6,30.03,NW,305,0.0,0.0,40,0.00,,,0.00,Wunderground v.1.15,2013-08-03 19:50:00,
2013-08-03 15:00:00,78.5,54.8,30.02,WNW,297,0.0,0.0,44,0.00,,,0.00,Wunderground v.1.15,2013-08-03 20:00:00,
2013-08-03 15:10:00,79.2,53.5,30.02,WNW,300,0.0,0.0,41,0.00,,,0.00,Wunderground v.1.15,2013-08-03 20:10:00,
2013-08-03 15:20:00,78.5,52.8,30.02,NW,316,0.0,0.0,41,0.00,,,0.00,Wunderground v.1.15,2013-08-03 20:20:00,
2013-08-03 15:30:00,78.5,54.8,30.02,NW,316,0.0,0.0,44,0.00,,,0.00,Wunderground v.1.15,2013-08-03 20:30:00,
2013-08-03 15:40:00,78.3,51.3,30.02,NW,315,0.0,0.0,39,0.00,,,0.00,Wunderground v.1.15,2013-08-03 20:40:00,
2013-08-03 15:50:00,78.8,51.0,30.02,NW,325,0.0,0.0,38,0.00,,,0.00,Wunderground v.1.15,2013-08-03 20:50:00,
2013-08-03 16:00:00,79.0,52.6,30.02,NW,319,0.0,0.0,40,0.00,,,0.00,Wunderground v.1.15,2013-08-03 21:00:00,
2013-08-03 16:10:00,78.3,51.3,30.02,West,273,0.0,0.0,39,0.00,,,0.00,Wunderground v.1.15,2013-08-03 21:10:00,
2013-08-03 16:19:00,77.9,54.2,30.02,West,273,0.0,0.0,44,0.00,,,0.00,Wunderground v.1.15,2013-08-03 21:19:00,
2013-08-03 16:30:00,77.4,54.4,30.01,West,281,0.0,0.0,45,0.00,,,0.00,Wunderground v.1.15,2013-08-03 21:30:00,
2013-08-03 16:40:00,77.2,54.8,30.01,West,281,0.0,0.0,46,0.00,,,0.00,Wunderground v.1.15,2013-08-03 21:40:00,
2013-08-03 16:50:00,77.2,56.0,30.01,West,281,0.0,0.0,48,0.00,,,0.00,Wunderground v.1.15,2013-08-03 21:50:00,
2013-08-03 17:00:00,77.4,55.6,30.02,WSW,238,0.0,0.0,47,0.00,,,0.00,Wunderground v.1.15,2013-08-03 22:00:00,
2013-08-03 17:10:00,77.4,54.4,30.02,WNW,297,0.0,0.0,45,0.00,,,0.00,Wunderground v.1.15,2013-08-03 22:10:00,
2013-08-03 17:20:00,77.0,54.0,30.03,WNW,297,0.0,0.0,45,0.00,,,0.00,Wunderground v.1.15,2013-08-03 22:20:00,
2013-08-03 17:30:00,77.9,54.2,30.02,WNW,298,0.0,0.0,44,0.00,,,0.00,Wunderground v.1.15,2013-08-03 22:30:00,
2013-08-03 17:40:00,78.3,52.7,30.02,WNW,298,0.0,0.0,41,0.00,,,0.00,Wunderground v.1.15,2013-08-03 22:40:00,
2013-08-03 17:50:00,78.5,52.8,30.02,WNW,298,0.0,0.0,41,0.00,,,0.00,Wunderground v.1.15,2013-08-03 22:50:00,
2013-08-03 18:00:00,78.3,52.0,30.00,WNW,298,0.0,0.0,40,0.00,,,0.00,Wunderground v.1.15,2013-08-03 23:00:00,
2013-08-03 18:10:00,78.5,52.8,30.00,WNW,298,0.0,0.0,41,0.00,,,0.00,Wunderground v.1.15,2013-08-03 23:10:00,
2013-08-03 18:20:00,78.5,52.8,30.00,WNW,298,0.0,0.0,41,0.00,,,0.00,Wunderground v.1.15,2013-08-03 23:20:00,
2013-08-03 18:30:00,78.3,54.0,30.00,WNW,298,0.0,0.0,43,0.00,,,0.00,Wunderground v.1.15,2013-08-03 23:30:00,
2013-08-03 18:40:00,78.1,54.4,30.00,WNW,298,0.0,0.0,44,0.00,,,0.00,Wunderground v.1.15,2013-08-03 23:40:00,
2013-08-03 18:50:00,78.1,53.8,30.00,WNW,298,0.0,0.0,43,0.00,,,0.00,Wunderground v.1.15,2013-08-03 23:50:00,
2013-08-03 19:00:00,78.6,54.2,30.01,WNW,298,0.0,0.0,43,0.00,,,0.00,Wunderground v.1.15,2013-08-04 00:00:00,
2013-08-03 19:10:00,78.6,53.6,30.01,WNW,298,0.0,0.0,42,0.00,,,0.00,Wunderground v.1.15,2013-08-04 00:10:00,
2013-08-03 19:19:00,78.6,54.2,30.01,WNW,298,0.0,0.0,43,0.00,,,0.00,Wunderground v.1.15,2013-08-04 00:19:00,
2013-08-03 19:30:00,78.6,53.6,30.02,WNW,298,0.0,0.0,42,0.00,,,0.00,Wunderground v.1.15,2013-08-04 00:30:00,
2013-08-03 19:40:00,78.5,53.5,30.02,WNW,298,0.0,0.0,42,0.00,,,0.00,Wunderground v.1.15,2013-08-04 00:40:00,
2013-08-03 19:50:00,78.1,54.4,30.02,WNW,298,0.0,0.0,44,0.00,,,0.00,Wunderground v.1.15,2013-08-04 00:50:00,
2013-08-03 20:00:00,77.6,54.6,30.02,WNW,298,0.0,0.0,45,0.00,,,0.00,Wunderground v.1.15,2013-08-04 01:00:00,
2013-08-03 20:09:00,76.8,54.5,30.02,WNW,298,0.0,0.0,46,0.00,,,0.00,Wunderground v.1.15,2013-08-04 01:09:00,
2013-08-03 20:19:00,76.1,54.4,30.02,WNW,298,0.0,0.0,47,0.00,,,0.00,Wunderground v.1.15,2013-08-04 01:19:00,
2013-08-03 20:30:00,75.3,55.4,30.02,WNW,298,0.0,0.0,50,0.00,,,0.00,Wunderground v.1.15,2013-08-04 01:30:00,
2013-08-03 20:40:00,74.4,55.1,30.02,WNW,298,0.0,0.0,51,0.00,,,0.00,Wunderground v.1.15,2013-08-04 01:40:00,
2013-08-03 20:50:00,73.9,55.2,30.02,WNW,298,0.0,0.0,52,0.00,,,0.00,Wunderground v.1.15,2013-08-04 01:50:00,
2013-08-03 20:59:00,73.3,55.1,30.03,WNW,298,0.0,0.0,53,0.00,,,0.00,Wunderground v.1.15,2013-08-04 01:59:00,
2013-08-03 21:10:00,72.7,55.1,30.03,WNW,298,0.0,0.0,54,0.00,,,0.00,Wunderground v.1.15,2013-08-04 02:10:00,
2013-08-03 21:20:00,72.1,55.0,30.04,WNW,298,0.0,0.0,55,0.00,,,0.00,Wunderground v.1.15,2013-08-04 02:20:00,
2013-08-03 21:30:00,71.6,55.6,30.05,WNW,298,0.0,0.0,57,0.00,,,0.00,Wunderground v.1.15,2013-08-04 02:30:00,
2013-08-03 21:40:00,71.3,55.8,30.05,WNW,298,0.0,0.0,58,0.00,,,0.00,Wunderground v.1.15,2013-08-04 02:40:00,
2013-08-03 21:50:00,70.8,55.8,30.05,WNW,298,0.0,0.0,59,0.00,,,0.00,Wunderground v.1.15,2013-08-04 02:50:00,
2013-08-03 22:00:00,70.3,55.3,30.05,WNW,298,0.0,0.0,59,0.00,,,0.00,Wunderground v.1.15,2013-08-04 03:00:00,
2013-08-03 22:10:00,69.8,54.8,30.05,WNW,298,0.0,0.0,59,0.00,,,0.00,Wunderground v.1.15,2013-08-04 03:10:00,
2013-08-03 22:20:00,69.4,54.9,30.07,WNW,298,0.0,0.0,60,0.00,,,0.00,Wunderground v.1.15,2013-08-04 03:20:00,
2013-08-03 22:30:00,69.1,54.6,30.07,WNW,298,0.0,0.0,60,0.00,,,0.00,Wunderground v.1.15,2013-08-04 03:30:00,
2013-08-03 22:40:00,68.8,55.2,30.07,WNW,298,0.0,0.0,62,0.00,,,0.00,Wunderground v.1.15,2013-08-04 03:40:00,
2013-08-03 22:50:00,68.3,54.8,30.06,WNW,298,0.0,0.0,62,0.00,,,0.00,Wunderground v.1.15,2013-08-04 03:50:00,
2013-08-03 23:00:00,67.9,54.8,30.07,WNW,298,0.0,0.0,63,0.00,,,0.00,Wunderground v.1.15,2013-08-04 04:00:00,
2013-08-03 23:10:00,67.8,54.7,30.07,WNW,298,0.0,0.0,63,0.00,,,0.00,Wunderground v.1.15,2013-08-04 04:10:00,
2013-08-03 23:20:00,67.4,54.8,30.07,WNW,298,0.0,0.0,64,0.00,,,0.00,Wunderground v.1.15,2013-08-04 04:20:00,
2013-08-03 23:30:00,67.1,54.5,30.07,WNW,298,0.0,0.0,64,0.00,,,0.00,Wunderground v.1.15,2013-08-04 04:30:00,
2013-08-03 23:40:00,66.9,54.7,30.07,WNW,298,0.0,0.0,65,0.00,,,0.00,Wunderground v.1.15,2013-08-04 04:40:00,
2013-08-03 23:50:00,66.8,55.1,30.07,WNW,298,0.0,0.0,66,0.00,,,0.00,Wunderground v.1.15,2013-08-04 04:50:00,